createdAt,value
2023-02-07T00:03:38.728Z,10.14
2023-02-07T00:08:45.370Z,12.17
2023-02-07T00:13:51.690Z,7.81
2023-02-07T00:19:00.137Z,6.39
2023-02-07T00:24:03.818Z,10.55
2023-02-07T00:29:15.687Z,10.55
2023-02-07T00:34:12.068Z,18.46
2023-02-07T00:39:18.457Z,9.23
2023-02-07T00:44:25.069Z,15.41
2023-02-07T00:49:31.256Z,19.87
2023-02-07T00:54:38.791Z,9.33
2023-02-07T00:59:44.829Z,6.90
2023-02-07T01:04:51.366Z,18.35
2023-02-07T01:09:57.544Z,12.88
2023-02-07T01:15:04.286Z,14.40
2023-02-07T01:20:10.614Z,15.41
2023-02-07T01:25:22.063Z,6.90
2023-02-07T01:30:18.207Z,11.56
2023-02-07T01:35:24.407Z,12.27
2023-02-07T01:40:32.054Z,7.30
2023-02-07T01:45:38.457Z,8.21
2023-02-07T01:50:45.455Z,11.46
2023-02-07T01:55:53.832Z,7.30
2023-02-07T02:01:00.636Z,5.98
2023-02-07T02:06:06.598Z,11.97
2023-02-07T02:11:14.254Z,6.69
2023-02-07T02:16:20.572Z,17.44
2023-02-07T02:21:29.021Z,6.39
2023-02-07T02:26:37.459Z,8.01
2023-02-07T02:31:43.865Z,10.85
2023-02-07T02:36:49.975Z,11.15
2023-02-07T02:41:56.612Z,10.44
2023-02-07T02:47:03.702Z,9.02
2023-02-07T02:52:11.373Z,8.92
2023-02-07T02:57:17.701Z,6.69
2023-02-07T03:02:24.162Z,10.04
2023-02-07T03:07:31.324Z,10.44
2023-02-07T03:12:37.915Z,8.82
2023-02-07T03:17:44.179Z,8.21
2023-02-07T03:22:53.101Z,8.11
2023-02-07T03:28:01.365Z,10.95
2023-02-07T03:33:08.961Z,11.76
2023-02-07T03:38:15.120Z,12.47
2023-02-07T03:43:21.879Z,9.73
2023-02-07T03:48:27.990Z,10.75
2023-02-07T03:53:34.375Z,10.14
2023-02-07T03:58:40.612Z,11.76
2023-02-07T04:03:46.986Z,11.05
2023-02-07T04:08:54.327Z,10.75
2023-02-07T04:14:00.818Z,5.98
2023-02-07T04:19:06.876Z,8.82
2023-02-07T04:24:13.764Z,10.95
2023-02-07T04:29:20.248Z,6.69
2023-02-07T04:34:31.682Z,10.65
2023-02-07T04:39:28.098Z,9.33
2023-02-07T04:44:34.238Z,9.43
2023-02-07T04:49:40.754Z,7.81
2023-02-07T04:54:47.958Z,5.98
2023-02-07T04:59:54.667Z,8.52
2023-02-07T05:05:02.025Z,18.25
2023-02-07T05:10:08.859Z,9.84
2023-02-07T05:15:14.938Z,10.14
2023-02-07T05:20:21.937Z,11.56
2023-02-07T05:25:27.993Z,8.11
2023-02-07T05:30:34.921Z,11.97
2023-02-07T05:35:41.070Z,9.23
2023-02-07T05:40:47.655Z,12.07
2023-02-07T05:45:53.848Z,16.12
2023-02-07T05:51:01.285Z,9.23
2023-02-07T05:56:07.325Z,14.70
2023-02-07T06:01:14.909Z,12.37
2023-02-07T06:06:21.152Z,11.97
2023-02-07T06:11:27.885Z,12.17
2023-02-07T06:16:34.009Z,10.65
2023-02-07T06:21:46.838Z,11.36
2023-02-07T06:26:48.369Z,8.72
2023-02-07T06:31:54.993Z,12.17
2023-02-07T06:37:01.280Z,11.86
2023-02-07T06:42:07.906Z,11.86
2023-02-07T06:47:14.274Z,10.34
2023-02-07T06:52:20.714Z,6.90
2023-02-07T06:57:27.853Z,9.94
2023-02-07T07:02:34.581Z,10.24
2023-02-07T07:07:40.798Z,12.07
2023-02-07T07:12:47.629Z,9.63
2023-02-07T07:17:53.989Z,10.95
2023-02-07T07:23:00.725Z,9.73
2023-02-07T07:28:07.238Z,8.92
2023-02-07T07:33:13.620Z,9.02
2023-02-07T07:38:19.843Z,9.43
2023-02-07T07:43:26.331Z,9.13
2023-02-07T07:48:32.662Z,12.98
2023-02-07T07:53:39.303Z,11.26
2023-02-07T07:58:45.546Z,11.05
2023-02-07T08:03:52.350Z,10.55
2023-02-07T08:08:59.554Z,11.76
2023-02-07T08:14:06.337Z,10.44
2023-02-07T08:19:12.415Z,12.88
2023-02-07T08:24:25.791Z,11.97
2023-02-07T08:29:23.229Z,22.71
2023-02-07T08:34:29.792Z,10.75
2023-02-07T08:39:36.011Z,8.21
2023-02-07T08:44:42.667Z,6.19
2023-02-07T08:49:48.901Z,9.84
2023-02-07T08:54:56.452Z,10.75
2023-02-07T09:00:04.827Z,7.91
2023-02-07T09:05:11.446Z,7.10
2023-02-07T09:10:17.792Z,8.92
2023-02-07T09:15:24.068Z,6.59
2023-02-07T09:20:31.171Z,6.79
2023-02-07T09:25:37.950Z,5.68
2023-02-07T09:30:44.217Z,7.91
2023-02-07T09:35:51.570Z,7.30
2023-02-07T09:40:58.925Z,6.08
2023-02-07T09:46:05.974Z,5.98
2023-02-07T09:51:12.386Z,6.59
2023-02-07T09:56:18.884Z,8.21
2023-02-07T10:01:26.172Z,11.26
2023-02-07T10:06:33.694Z,5.17
2023-02-07T10:11:40.800Z,8.72
2023-02-07T10:16:47.392Z,8.42
2023-02-07T10:21:53.594Z,2.94
2023-02-07T10:27:01.288Z,7.30
2023-02-07T10:32:07.480Z,5.48
2023-02-07T10:37:13.789Z,5.98
2023-02-07T10:42:20.030Z,5.27
2023-02-07T10:47:26.627Z,5.88
2023-02-07T10:52:32.972Z,5.58
2023-02-07T10:57:40.636Z,6.49
2023-02-07T11:02:45.112Z,5.88
2023-02-07T11:07:51.879Z,4.06
2023-02-07T11:12:59.310Z,0.30
2023-02-07T11:18:05.839Z,4.26
2023-02-07T11:23:11.971Z,2.54
2023-02-07T11:28:18.495Z,4.87
2023-02-07T11:33:24.730Z,6.59
2023-02-07T11:38:31.442Z,4.16
2023-02-07T11:43:37.528Z,5.27
2023-02-07T11:48:43.931Z,3.65
2023-02-07T11:53:52.331Z,4.97
2023-02-07T11:58:58.922Z,3.85
2023-02-07T12:04:06.045Z,0.00
2023-02-07T12:09:12.523Z,4.36
2023-02-07T12:14:18.808Z,5.88
2023-02-07T12:19:25.296Z,3.24
2023-02-07T12:24:31.555Z,5.98
2023-02-07T12:29:38.244Z,3.85
2023-02-07T12:34:45.758Z,3.85
2023-02-07T12:39:52.523Z,0.61
2023-02-07T12:44:58.685Z,5.98
2023-02-07T12:50:06.654Z,1.72
2023-02-07T12:55:13.084Z,1.83
2023-02-07T13:00:22.773Z,4.06
2023-02-07T13:05:30.166Z,3.55
2023-02-07T13:10:36.848Z,5.68
2023-02-07T13:15:43.288Z,0.00
2023-02-07T13:20:49.935Z,1.01
2023-02-07T13:25:56.125Z,3.55
2023-02-07T13:31:03.804Z,2.94
2023-02-07T13:36:09.408Z,0.81
2023-02-07T13:41:17.809Z,2.94
2023-02-07T13:46:27.128Z,1.52
2023-02-07T13:51:31.997Z,6.08
2023-02-07T13:56:38.532Z,3.14
2023-02-07T14:01:45.382Z,0.91
2023-02-07T14:06:51.691Z,5.98
2023-02-07T14:11:58.112Z,0.10
2023-02-07T14:17:04.328Z,0.91
2023-02-07T14:22:10.977Z,0.30
2023-02-07T14:27:17.300Z,2.64
2023-02-07T14:32:24.052Z,1.34
2023-02-07T14:37:30.190Z,1.83
2023-02-07T14:42:37.967Z,4.97
2023-02-07T14:47:44.137Z,5.27
2023-02-07T14:52:52.201Z,0.91
2023-02-07T14:57:58.301Z,2.84
2023-02-07T15:03:05.044Z,2.74
2023-02-07T15:08:10.684Z,0.51
2023-02-07T15:13:17.225Z,3.45
2023-02-07T15:18:23.351Z,0.20
2023-02-07T15:23:30.099Z,3.24
2023-02-07T15:28:36.533Z,1.22
2023-02-07T15:33:42.729Z,3.95
2023-02-07T15:38:49.137Z,1.83
2023-02-07T15:43:56.932Z,5.78
2023-02-07T15:49:03.062Z,1.52
2023-02-07T15:54:10.087Z,0.41
2023-02-07T15:59:36.229Z,1.72
2023-02-07T16:04:22.676Z,1.01
2023-02-07T16:09:28.927Z,2.23
2023-02-07T16:14:35.672Z,5.48
2023-02-07T16:19:42.186Z,1.01
2023-02-07T16:24:48.693Z,1.12
2023-02-07T16:29:55.802Z,1.12
2023-02-07T16:35:04.416Z,6.08
2023-02-07T16:40:10.466Z,4.56
2023-02-07T16:45:18.137Z,5.78
2023-02-07T16:50:24.530Z,5.27
2023-02-07T16:55:32.346Z,5.37
2023-02-07T17:00:39.579Z,5.68
2023-02-07T17:05:45.717Z,4.77
2023-02-07T17:10:53.176Z,5.68
2023-02-07T17:15:59.480Z,5.78
2023-02-07T17:21:05.496Z,7.40
2023-02-07T17:26:12.156Z,5.98
2023-02-07T17:31:19.268Z,6.69
2023-02-07T17:36:25.197Z,6.08
2023-02-07T17:41:32.344Z,5.78
2023-02-07T17:46:38.781Z,7.50
2023-02-07T17:51:46.130Z,7.00
2023-02-07T17:56:53.383Z,7.00
2023-02-07T18:01:58.550Z,5.98
2023-02-07T18:07:06.209Z,6.39
2023-02-07T18:12:12.957Z,5.98
2023-02-07T18:17:19.468Z,8.31
2023-02-07T18:22:25.739Z,7.71
2023-02-07T18:27:32.564Z,7.30
2023-02-07T18:32:38.726Z,3.35
2023-02-07T18:37:45.089Z,6.08
2023-02-07T18:42:51.213Z,7.00
2023-02-07T18:47:57.888Z,11.15
2023-02-07T18:53:03.855Z,5.98
2023-02-07T18:58:11.698Z,8.72
2023-02-07T19:03:17.833Z,8.42
2023-02-07T19:08:25.460Z,5.98
2023-02-07T19:13:32.512Z,9.73
2023-02-07T19:18:39.615Z,5.98
2023-02-07T19:23:45.773Z,8.21
2023-02-07T19:28:52.090Z,5.98
2023-02-07T19:34:00.542Z,6.29
2023-02-07T19:39:07.102Z,8.42
2023-02-07T19:44:13.336Z,5.98
2023-02-07T19:49:19.599Z,9.43
2023-02-07T19:54:25.847Z,9.73
2023-02-07T19:59:32.308Z,5.98
2023-02-07T20:04:38.456Z,9.33
2023-02-07T20:09:44.839Z,9.23
2023-02-07T20:14:51.133Z,7.10
2023-02-07T20:19:57.754Z,10.34
2023-02-07T20:25:03.874Z,7.61
2023-02-07T20:30:11.891Z,5.88
2023-02-07T20:35:20.152Z,5.98
2023-02-07T20:40:27.805Z,8.72
2023-02-07T20:45:35.146Z,8.21
2023-02-07T20:50:44.156Z,10.34
2023-02-07T20:55:50.607Z,7.61
2023-02-07T21:00:56.928Z,8.01
2023-02-07T21:06:02.940Z,19.67
2023-02-07T21:11:09.114Z,7.91
2023-02-07T21:16:15.279Z,11.76
2023-02-07T21:21:21.752Z,7.00
2023-02-07T21:26:27.882Z,11.56
2023-02-07T21:31:35.878Z,8.62
2023-02-07T21:36:41.366Z,11.97
2023-02-07T21:41:47.754Z,10.24
2023-02-07T21:46:55.673Z,10.34
2023-02-07T21:52:02.411Z,16.22
2023-02-07T21:57:08.765Z,10.65
2023-02-07T22:02:15.316Z,13.89
2023-02-07T22:07:22.415Z,12.98
2023-02-07T22:12:30.047Z,13.28
2023-02-07T22:17:36.174Z,10.55
2023-02-07T22:22:42.901Z,9.33
2023-02-07T22:27:50.054Z,11.46
2023-02-07T22:32:56.353Z,10.34
2023-02-07T22:38:02.572Z,9.13
2023-02-07T22:43:09.579Z,18.66
2023-02-07T22:48:15.780Z,11.67
2023-02-07T22:53:22.060Z,11.26
2023-02-07T22:58:28.380Z,12.88
2023-02-07T23:03:34.752Z,10.04
2023-02-07T23:08:41.931Z,9.33
2023-02-07T23:13:48.552Z,13.69
2023-02-07T23:18:55.590Z,18.46
2023-02-07T23:24:02.240Z,10.04
2023-02-07T23:29:09.380Z,10.14
2023-02-07T23:34:16.118Z,10.34
2023-02-07T23:39:22.190Z,8.42
2023-02-07T23:44:28.569Z,8.72
2023-02-07T23:49:34.833Z,9.73
2023-02-07T23:54:41.501Z,8.11
2023-02-07T23:59:47.728Z,13.28
